createdAt,value
2019-03-18T00:00:45.413Z,6.20
2019-03-18T00:03:13.680Z,6.30
2019-03-18T00:05:41.241Z,6.30
2019-03-18T00:08:08.700Z,6.30
2019-03-18T00:10:36.498Z,6.30
2019-03-18T00:13:04.733Z,6.40
2019-03-18T00:15:32.206Z,6.30
2019-03-18T00:17:59.685Z,6.30
2019-03-18T00:20:27.910Z,6.40
2019-03-18T00:22:55.429Z,6.40
2019-03-18T00:25:22.919Z,6.30
2019-03-18T00:27:50.444Z,6.30
2019-03-18T00:30:18.315Z,6.40
2019-03-18T00:32:46.581Z,6.40
2019-03-18T00:35:14.052Z,6.40
2019-03-18T00:37:41.510Z,6.30
2019-03-18T00:40:12.265Z,6.30
2019-03-18T00:42:40.531Z,6.20
2019-03-18T00:45:14.663Z,6.20
2019-03-18T00:47:36.249Z,6.10
2019-03-18T00:50:07.362Z,6.10
2019-03-18T00:52:34.886Z,6.00
2019-03-18T00:55:02.458Z,5.90
2019-03-18T00:57:30.716Z,5.70
2019-03-18T00:59:58.164Z,5.70
2019-03-18T01:02:25.759Z,5.80
2019-03-18T01:04:53.982Z,5.90
2019-03-18T01:07:21.446Z,5.90
2019-03-18T01:09:48.946Z,6.00
2019-03-18T01:12:16.505Z,6.00
2019-03-18T01:14:43.973Z,6.00
2019-03-18T01:17:11.534Z,6.00
2019-03-18T01:19:39.122Z,6.00
2019-03-18T01:22:07.360Z,6.00
2019-03-18T01:24:34.840Z,6.00
2019-03-18T01:27:02.425Z,6.00
2019-03-18T01:29:30.660Z,5.90
2019-03-18T01:31:58.136Z,5.90
2019-03-18T01:34:25.698Z,6.00
2019-03-18T01:36:53.279Z,6.00
2019-03-18T01:39:20.751Z,6.00
2019-03-18T01:41:48.314Z,6.00
2019-03-18T01:44:15.871Z,6.00
2019-03-18T01:46:43.355Z,6.10
2019-03-18T01:49:11.581Z,6.20
2019-03-18T01:51:39.076Z,6.20
2019-03-18T01:54:06.538Z,6.30
2019-03-18T01:56:34.010Z,6.30
2019-03-18T01:59:02.247Z,6.30
2019-03-18T02:01:29.734Z,6.30
2019-03-18T02:03:57.203Z,6.40
2019-03-18T02:06:24.752Z,6.30
2019-03-18T02:08:52.211Z,6.30
2019-03-18T02:11:19.791Z,6.30
2019-03-18T02:13:47.360Z,6.20
2019-03-18T02:16:14.906Z,6.20
2019-03-18T02:18:42.375Z,6.20
2019-03-18T02:21:09.855Z,6.20
2019-03-18T02:23:37.384Z,6.20
2019-03-18T02:26:04.862Z,6.20
2019-03-18T02:28:33.845Z,6.10
2019-03-18T02:31:01.328Z,6.10
2019-03-18T02:33:28.793Z,6.10
2019-03-18T02:35:56.376Z,6.10
2019-03-18T02:38:23.912Z,6.10
2019-03-18T02:40:51.384Z,6.20
2019-03-18T02:43:19.616Z,6.20
2019-03-18T02:45:47.081Z,6.20
2019-03-18T02:48:14.580Z,6.20
2019-03-18T02:50:42.057Z,6.20
2019-03-18T02:53:10.331Z,6.20
2019-03-18T02:55:37.803Z,6.20
2019-03-18T02:58:06.452Z,6.20
2019-03-18T03:00:33.913Z,6.10
2019-03-18T03:03:01.383Z,6.20
2019-03-18T03:05:28.856Z,6.20
2019-03-18T03:07:57.839Z,6.20
2019-03-18T03:10:25.316Z,6.20
2019-03-18T03:12:52.794Z,6.30
2019-03-18T03:15:21.058Z,6.30
2019-03-18T03:17:48.627Z,6.30
2019-03-18T03:20:16.047Z,6.30
2019-03-18T03:22:43.545Z,6.30
2019-03-18T03:25:11.041Z,6.30
2019-03-18T03:27:39.275Z,6.20
2019-03-18T03:30:11.652Z,6.20
2019-03-18T03:32:39.241Z,6.20
2019-03-18T03:35:06.729Z,6.20
2019-03-18T03:37:34.256Z,6.20
2019-03-18T03:40:01.809Z,6.20
2019-03-18T03:42:29.294Z,6.20
2019-03-18T03:44:57.553Z,6.20
2019-03-18T03:47:25.015Z,6.10
2019-03-18T03:49:52.489Z,6.20
2019-03-18T03:52:19.989Z,6.10
2019-03-18T03:54:47.521Z,6.10
2019-03-18T03:57:14.993Z,6.10
2019-03-18T03:59:43.239Z,6.10
2019-03-18T04:02:10.811Z,6.00
2019-03-18T04:04:38.332Z,6.10
2019-03-18T04:07:05.889Z,6.10
2019-03-18T04:09:33.377Z,6.00
2019-03-18T04:12:00.889Z,6.00
2019-03-18T04:14:29.126Z,6.10
2019-03-18T04:17:03.520Z,6.10
2019-03-18T04:19:24.121Z,6.00
2019-03-18T04:21:52.209Z,6.00
2019-03-18T04:24:19.749Z,6.10
2019-03-18T04:26:47.220Z,6.10
2019-03-18T04:29:14.733Z,6.20
2019-03-18T04:31:42.300Z,6.20
2019-03-18T04:34:09.879Z,6.10
2019-03-18T04:36:38.141Z,5.90
2019-03-18T04:39:06.422Z,5.80
2019-03-18T04:41:33.873Z,5.80
2019-03-18T04:44:01.334Z,5.80
2019-03-18T04:46:28.791Z,5.60
2019-03-18T04:48:56.278Z,5.40
2019-03-18T04:51:24.600Z,5.20
2019-03-18T04:53:52.106Z,5.10
2019-03-18T04:56:20.811Z,5.10
2019-03-18T04:58:49.054Z,5.10
2019-03-18T05:01:16.510Z,5.00
2019-03-18T05:03:43.982Z,5.00
2019-03-18T05:06:11.500Z,5.00
2019-03-18T05:08:39.023Z,5.10
2019-03-18T05:11:06.478Z,5.10
2019-03-18T05:13:33.969Z,5.10
2019-03-18T05:16:02.237Z,5.20
2019-03-18T05:18:29.698Z,5.20
2019-03-18T05:20:57.187Z,5.30
2019-03-18T05:23:25.477Z,5.40
2019-03-18T05:25:52.941Z,5.40
2019-03-18T05:28:20.486Z,5.40
2019-03-18T05:30:48.729Z,5.40
2019-03-18T05:33:16.212Z,5.40
2019-03-18T05:35:43.683Z,5.50
2019-03-18T05:38:11.940Z,5.50
2019-03-18T05:40:39.398Z,5.50
2019-03-18T05:43:07.066Z,5.50
2019-03-18T05:45:34.642Z,5.40
2019-03-18T05:48:02.131Z,5.50
2019-03-18T05:50:29.715Z,5.50
2019-03-18T05:52:57.241Z,5.50
2019-03-18T05:55:24.762Z,5.50
2019-03-18T05:57:52.942Z,5.60
2019-03-18T06:00:20.402Z,5.60
2019-03-18T06:02:47.887Z,5.70
2019-03-18T06:05:15.350Z,5.70
2019-03-18T06:07:42.811Z,5.80
2019-03-18T06:10:10.262Z,5.80
2019-03-18T06:12:37.834Z,5.80
2019-03-18T06:15:05.348Z,5.90
2019-03-18T06:17:32.910Z,5.90
2019-03-18T06:20:00.446Z,5.90
2019-03-18T06:22:27.866Z,6.00
2019-03-18T06:24:55.335Z,6.10
2019-03-18T06:27:22.794Z,6.10
2019-03-18T06:29:50.322Z,6.20
2019-03-18T06:32:17.829Z,6.20
2019-03-18T06:34:45.385Z,6.20
2019-03-18T06:37:12.857Z,6.20
2019-03-18T06:39:40.478Z,6.10
2019-03-18T06:42:07.938Z,6.10
2019-03-18T06:44:35.396Z,6.00
2019-03-18T06:47:03.549Z,5.90
2019-03-18T06:49:31.831Z,5.90
2019-03-18T06:52:00.089Z,5.90
2019-03-18T06:54:27.593Z,5.90
2019-03-18T06:56:55.090Z,6.00
2019-03-18T06:59:22.600Z,6.10
2019-03-18T07:01:51.000Z,6.20
2019-03-18T07:04:19.247Z,6.20
2019-03-18T07:06:46.715Z,6.20
2019-03-18T07:09:14.190Z,6.10
2019-03-18T07:11:42.487Z,6.20
2019-03-18T07:14:09.971Z,6.20
2019-03-18T07:16:38.249Z,6.30
2019-03-18T07:19:06.478Z,6.40
2019-03-18T07:21:34.063Z,6.40
2019-03-18T07:24:02.319Z,6.60
2019-03-18T07:26:29.877Z,6.60
2019-03-18T07:28:58.127Z,6.50
2019-03-18T07:31:25.634Z,6.50
2019-03-18T07:33:53.857Z,6.10
2019-03-18T07:36:21.369Z,6.10
2019-03-18T07:38:49.608Z,6.20
2019-03-18T07:41:17.062Z,6.20
2019-03-18T07:43:44.531Z,6.40
2019-03-18T07:46:12.007Z,6.50
2019-03-18T07:48:39.482Z,6.40
2019-03-18T07:51:06.947Z,6.30
2019-03-18T07:53:34.416Z,6.10
2019-03-18T07:56:01.877Z,6.10
2019-03-18T07:58:29.372Z,6.40
2019-03-18T08:00:57.732Z,6.90
2019-03-18T08:03:25.130Z,6.90
2019-03-18T08:05:52.589Z,6.90
2019-03-18T08:08:20.068Z,7.20
2019-03-18T08:10:47.528Z,7.40
2019-03-18T08:13:15.015Z,7.40
2019-03-18T08:15:42.580Z,7.50
2019-03-18T08:18:10.053Z,7.60
2019-03-18T08:20:38.282Z,7.70
2019-03-18T08:23:05.791Z,7.70
2019-03-18T08:25:33.316Z,7.80
2019-03-18T08:28:00.797Z,7.90
2019-03-18T08:30:28.278Z,8.10
2019-03-18T08:32:55.846Z,8.20
2019-03-18T08:35:23.311Z,8.20
2019-03-18T08:37:50.904Z,8.20
2019-03-18T08:40:19.604Z,6.90
2019-03-18T08:42:47.126Z,6.90
2019-03-18T08:45:14.661Z,6.60
2019-03-18T08:47:42.197Z,6.30
2019-03-18T08:50:12.285Z,6.20
2019-03-18T08:52:38.377Z,6.80
2019-03-18T08:55:07.089Z,7.10
2019-03-18T08:57:34.584Z,7.10
2019-03-18T09:00:20.076Z,7.30
2019-03-18T09:02:47.535Z,7.30
2019-03-18T09:05:15.000Z,7.30
2019-03-18T09:07:42.505Z,7.20
2019-03-18T09:10:14.541Z,7.30
2019-03-18T09:12:42.062Z,7.40
2019-03-18T09:15:09.565Z,7.70
2019-03-18T09:17:37.022Z,7.80
2019-03-18T09:20:21.103Z,7.80
2019-03-18T09:22:49.463Z,7.80
2019-03-18T09:25:18.078Z,8.30
2019-03-18T09:27:45.537Z,8.20
2019-03-18T09:30:18.486Z,8.30
2019-03-18T09:32:45.946Z,8.50
2019-03-18T09:35:13.453Z,8.60
2019-03-18T09:37:42.420Z,9.00
2019-03-18T09:40:12.578Z,9.00
2019-03-18T09:42:40.811Z,8.90
2019-03-18T09:45:12.909Z,8.90
2019-03-18T09:47:40.372Z,9.00
2019-03-18T09:50:07.927Z,9.10
2019-03-18T09:52:35.515Z,9.20
2019-03-18T09:55:03.800Z,9.30
2019-03-18T09:57:32.055Z,9.20
2019-03-18T09:59:59.623Z,9.20
2019-03-18T10:02:27.187Z,9.30
2019-03-18T10:04:56.165Z,9.20
2019-03-18T10:07:24.373Z,9.20
2019-03-18T10:09:51.827Z,9.30
2019-03-18T10:12:19.429Z,9.50
2019-03-18T10:14:47.647Z,9.50
2019-03-18T10:17:15.110Z,9.50
2019-03-18T10:19:42.588Z,9.30
2019-03-18T10:22:10.062Z,9.00
2019-03-18T10:24:37.609Z,9.30
2019-03-18T10:27:05.070Z,9.60
2019-03-18T10:29:32.528Z,9.80
2019-03-18T10:32:00.007Z,9.60
2019-03-18T10:34:27.486Z,9.10
2019-03-18T10:36:55.713Z,8.90
2019-03-18T10:39:23.257Z,8.80
2019-03-18T10:41:50.710Z,9.10
2019-03-18T10:44:18.927Z,9.20
2019-03-18T10:46:46.419Z,9.20
2019-03-18T10:49:13.886Z,9.00
2019-03-18T10:51:41.350Z,8.90
2019-03-18T10:54:09.585Z,8.60
2019-03-18T10:56:37.070Z,8.60
2019-03-18T10:59:04.543Z,8.50
2019-03-18T11:01:33.512Z,8.30
2019-03-18T11:04:00.976Z,8.30
2019-03-18T11:06:28.462Z,8.40
2019-03-18T11:08:55.923Z,8.80
2019-03-18T11:11:23.479Z,9.10
2019-03-18T11:13:50.964Z,9.50
2019-03-18T11:16:18.422Z,9.60
2019-03-18T11:18:46.648Z,8.90
2019-03-18T11:21:14.102Z,8.90
2019-03-18T11:23:41.618Z,8.40
2019-03-18T11:26:09.848Z,8.30
2019-03-18T11:28:37.313Z,8.30
2019-03-18T11:31:04.811Z,8.30
2019-03-18T11:33:32.285Z,8.60
2019-03-18T11:35:59.840Z,8.60
2019-03-18T11:38:27.322Z,8.50
2019-03-18T11:40:54.786Z,8.30
2019-03-18T11:43:23.011Z,7.60
2019-03-18T11:45:50.474Z,7.60
2019-03-18T11:48:18.789Z,7.70
2019-03-18T11:50:47.033Z,7.60
2019-03-18T11:53:15.029Z,7.60
2019-03-18T11:55:42.009Z,7.80
2019-03-18T11:58:10.275Z,8.40
2019-03-18T12:00:37.860Z,8.40
2019-03-18T12:03:06.080Z,8.30
2019-03-18T12:05:33.559Z,8.30
2019-03-18T12:08:01.035Z,8.30
2019-03-18T12:10:28.522Z,8.30
2019-03-18T12:12:56.750Z,8.90
2019-03-18T12:15:25.073Z,8.90
2019-03-18T12:17:52.578Z,9.10
2019-03-18T12:20:24.872Z,9.20
2019-03-18T12:22:47.533Z,9.10
2019-03-18T12:25:15.011Z,9.10
2019-03-18T12:27:42.484Z,9.00
2019-03-18T12:30:17.389Z,9.10
2019-03-18T12:32:44.891Z,9.20
2019-03-18T12:35:13.148Z,9.00
2019-03-18T12:37:40.601Z,9.00
2019-03-18T12:40:08.070Z,8.90
2019-03-18T12:42:35.549Z,9.20
2019-03-18T12:45:04.612Z,9.30
2019-03-18T12:47:32.061Z,9.30
2019-03-18T12:49:59.669Z,9.40
2019-03-18T12:52:27.132Z,9.20
2019-03-18T12:54:54.696Z,9.60
2019-03-18T12:57:22.956Z,9.70
2019-03-18T12:59:50.435Z,9.70
2019-03-18T13:02:17.881Z,9.70
2019-03-18T13:04:45.357Z,9.70
2019-03-18T13:07:14.434Z,9.10
2019-03-18T13:09:41.899Z,9.10
2019-03-18T13:12:09.361Z,9.40
2019-03-18T13:14:36.825Z,9.40
2019-03-18T13:17:04.400Z,9.30
2019-03-18T13:19:31.963Z,9.00
2019-03-18T13:21:59.531Z,9.10
2019-03-18T13:24:27.002Z,9.30
2019-03-18T13:26:55.300Z,9.40
2019-03-18T13:29:23.523Z,9.50
2019-03-18T13:31:51.023Z,9.40
2019-03-18T13:34:18.495Z,9.40
2019-03-18T13:36:46.762Z,9.20
2019-03-18T13:39:14.266Z,9.20
2019-03-18T13:41:41.779Z,9.30
2019-03-18T13:44:09.347Z,9.40
2019-03-18T13:46:36.834Z,9.40
2019-03-18T13:49:06.038Z,9.20
2019-03-18T13:51:34.276Z,9.10
2019-03-18T13:54:01.745Z,9.10
2019-03-18T13:56:29.203Z,9.10
2019-03-18T13:58:56.766Z,9.00
2019-03-18T14:01:24.331Z,8.70
2019-03-18T14:03:51.810Z,8.50
2019-03-18T14:06:19.277Z,8.50
2019-03-18T14:08:47.876Z,8.00
2019-03-18T14:11:16.098Z,7.60
2019-03-18T14:13:43.591Z,7.60
2019-03-18T14:16:11.059Z,7.60
2019-03-18T14:18:38.526Z,7.70
2019-03-18T14:21:06.080Z,8.10
2019-03-18T14:23:33.557Z,7.80
2019-03-18T14:26:01.018Z,7.80
2019-03-18T14:28:28.577Z,7.90
2019-03-18T14:30:56.131Z,7.90
2019-03-18T14:33:25.105Z,8.30
2019-03-18T14:35:52.576Z,8.30
2019-03-18T14:38:20.067Z,8.20
2019-03-18T14:40:47.547Z,8.50
2019-03-18T14:43:15.802Z,8.40
2019-03-18T14:45:44.046Z,8.30
2019-03-18T14:48:11.699Z,8.30
2019-03-18T14:50:39.153Z,8.30
2019-03-18T14:53:07.330Z,8.20
2019-03-18T14:55:34.954Z,8.30
2019-03-18T14:58:02.442Z,8.40
2019-03-18T15:00:30.703Z,8.10
2019-03-18T15:02:58.940Z,8.40
2019-03-18T15:05:26.407Z,8.40
2019-03-18T15:07:53.882Z,8.30
2019-03-18T15:10:23.913Z,8.40
2019-03-18T15:12:51.426Z,8.40
2019-03-18T15:15:18.914Z,8.30
2019-03-18T15:17:46.383Z,8.40
2019-03-18T15:20:13.934Z,8.40
2019-03-18T15:22:41.419Z,8.30
2019-03-18T15:25:13.789Z,8.50
2019-03-18T15:27:41.357Z,8.60
2019-03-18T15:30:10.396Z,8.30
2019-03-18T15:32:37.864Z,8.30
2019-03-18T15:35:05.388Z,8.60
2019-03-18T15:37:34.363Z,8.30
2019-03-18T15:40:01.835Z,8.30
2019-03-18T15:42:29.296Z,8.50
2019-03-18T15:44:56.766Z,8.60
2019-03-18T15:47:24.234Z,8.80
2019-03-18T15:49:51.687Z,8.70
2019-03-18T15:52:19.168Z,8.70
2019-03-18T15:54:53.718Z,8.60
2019-03-18T15:57:14.182Z,8.40
2019-03-18T15:59:41.854Z,8.40
2019-03-18T16:02:10.374Z,8.40
2019-03-18T16:04:37.862Z,8.40
2019-03-18T16:07:05.427Z,8.30
2019-03-18T16:09:32.975Z,8.30
2019-03-18T16:12:00.512Z,8.20
2019-03-18T16:14:28.046Z,8.10
2019-03-18T16:17:01.998Z,8.10
2019-03-18T16:19:25.304Z,8.20
2019-03-18T16:21:52.782Z,8.20
2019-03-18T16:24:20.254Z,8.30
2019-03-18T16:26:47.733Z,8.50
2019-03-18T16:29:15.981Z,8.20
2019-03-18T16:31:43.435Z,8.20
2019-03-18T16:34:10.901Z,8.10
2019-03-18T16:36:38.377Z,8.10
2019-03-18T16:39:07.361Z,8.20
2019-03-18T16:41:34.942Z,8.20
2019-03-18T16:44:02.490Z,8.10
2019-03-18T16:46:29.962Z,8.10
2019-03-18T16:48:57.415Z,8.00
2019-03-18T16:51:24.882Z,7.90
2019-03-18T16:53:52.343Z,8.20
2019-03-18T16:56:19.907Z,8.20
2019-03-18T16:58:47.471Z,8.10
2019-03-18T17:01:14.934Z,8.00
2019-03-18T17:03:42.386Z,8.10
2019-03-18T17:06:09.848Z,8.20
2019-03-18T17:08:37.311Z,8.30
2019-03-18T17:11:04.778Z,8.10
2019-03-18T17:13:32.274Z,8.10
2019-03-18T17:16:00.495Z,8.00
2019-03-18T17:18:27.981Z,8.00
2019-03-18T17:20:55.549Z,7.90
2019-03-18T17:23:23.038Z,7.80
2019-03-18T17:25:51.347Z,7.80
2019-03-18T17:28:18.863Z,7.80
2019-03-18T17:30:47.145Z,7.80
2019-03-18T17:33:14.609Z,7.80
2019-03-18T17:35:42.078Z,7.80
2019-03-18T17:38:10.338Z,7.80
2019-03-18T17:40:37.857Z,7.70
2019-03-18T17:43:06.084Z,7.60
2019-03-18T17:45:33.554Z,7.50
2019-03-18T17:48:01.004Z,7.80
2019-03-18T17:50:28.583Z,7.70
2019-03-18T17:53:03.035Z,7.40
2019-03-18T17:55:24.306Z,7.30
2019-03-18T17:57:51.766Z,7.30
2019-03-18T18:03:13.633Z,7.40
2019-03-18T18:05:41.873Z,7.10
2019-03-18T18:08:09.343Z,7.10
2019-03-18T18:10:36.823Z,7.10
2019-03-18T18:13:04.288Z,7.00
2019-03-18T18:15:31.765Z,7.00
2019-03-18T18:18:00.039Z,6.90
2019-03-18T18:20:28.294Z,7.10
2019-03-18T18:22:55.753Z,7.10
2019-03-18T18:25:23.326Z,6.80
2019-03-18T18:27:50.803Z,7.00
2019-03-18T18:30:19.080Z,6.70
2019-03-18T18:32:47.339Z,6.60
2019-03-18T18:35:15.434Z,6.50
2019-03-18T18:37:42.908Z,6.60
2019-03-18T18:40:13.617Z,6.40
2019-03-18T18:42:41.178Z,6.40
2019-03-18T18:45:09.429Z,6.30
2019-03-18T18:47:36.941Z,6.30
2019-03-18T18:50:04.451Z,6.10
2019-03-18T18:52:32.678Z,6.20
2019-03-18T18:55:00.897Z,6.20
2019-03-18T18:57:28.413Z,6.20
2019-03-18T18:59:56.001Z,6.30
2019-03-18T19:02:24.238Z,6.30
2019-03-18T19:04:51.702Z,6.30
2019-03-18T19:07:19.211Z,6.40
2019-03-18T19:09:47.460Z,6.50
2019-03-18T19:12:16.149Z,6.40
2019-03-18T19:14:43.701Z,6.40
2019-03-18T19:17:11.175Z,6.20
2019-03-18T19:19:38.681Z,6.20
2019-03-18T19:22:06.214Z,6.00
2019-03-18T19:24:34.446Z,6.10
2019-03-18T19:27:01.911Z,6.10
2019-03-18T19:29:29.385Z,6.30
2019-03-18T19:31:56.864Z,6.10
2019-03-18T19:34:24.313Z,6.10
2019-03-18T19:36:51.788Z,6.00
2019-03-18T19:39:19.281Z,5.90
2019-03-18T19:41:47.508Z,6.00
2019-03-18T19:44:14.972Z,6.00
2019-03-18T19:46:42.431Z,5.90
2019-03-18T19:49:09.896Z,5.80
2019-03-18T19:51:37.427Z,5.90
2019-03-18T19:54:04.907Z,5.90
2019-03-18T19:56:32.360Z,5.90
2019-03-18T19:58:59.842Z,5.80
2019-03-18T20:01:27.288Z,5.70
2019-03-18T20:03:54.752Z,5.60
2019-03-18T20:06:22.232Z,5.60
2019-03-18T20:08:49.733Z,5.40
2019-03-18T20:11:17.201Z,5.60
2019-03-18T20:13:45.455Z,5.40
2019-03-18T20:16:12.940Z,5.40
2019-03-18T20:18:41.162Z,5.20
2019-03-18T20:21:08.624Z,5.20
2019-03-18T20:23:36.079Z,5.20
2019-03-18T20:26:03.552Z,5.30
2019-03-18T20:28:31.010Z,5.40
2019-03-18T20:30:58.479Z,5.50
2019-03-18T20:33:27.089Z,5.20
2019-03-18T20:35:54.714Z,5.10
2019-03-18T20:38:22.906Z,5.10
2019-03-18T20:40:50.401Z,5.10
2019-03-18T20:43:17.924Z,5.00
2019-03-18T20:45:46.126Z,5.00
2019-03-18T20:48:13.625Z,4.90
2019-03-18T20:50:41.871Z,4.80
2019-03-18T20:53:09.394Z,4.70
2019-03-18T20:55:36.850Z,4.70
2019-03-18T20:58:04.335Z,4.70
2019-03-18T21:00:31.797Z,4.80
2019-03-18T21:02:59.256Z,5.50
2019-03-18T21:05:26.745Z,5.10
2019-03-18T21:07:54.207Z,4.90
2019-03-18T21:10:21.699Z,4.90
2019-03-18T21:12:49.239Z,4.70
2019-03-18T21:15:17.255Z,4.70
2019-03-18T21:17:45.493Z,4.60
2019-03-18T21:20:21.657Z,4.60
2019-03-18T21:22:50.995Z,4.60
2019-03-18T21:25:19.271Z,4.70
2019-03-18T21:27:47.497Z,4.60
2019-03-18T21:30:16.919Z,4.60
2019-03-18T21:32:44.357Z,4.60
2019-03-18T21:35:11.807Z,4.40
2019-03-18T21:37:39.279Z,4.40
2019-03-18T21:40:10.207Z,4.30
2019-03-18T21:42:37.675Z,4.30
2019-03-18T21:45:05.199Z,4.20
2019-03-18T21:47:33.431Z,4.20
2019-03-18T21:50:00.923Z,4.20
2019-03-18T21:52:29.922Z,4.30
2019-03-18T21:54:57.548Z,4.30
2019-03-18T21:57:25.089Z,4.30
2019-03-18T21:59:53.311Z,4.30
2019-03-18T22:02:20.874Z,4.30
2019-03-18T22:04:48.326Z,4.20
2019-03-18T22:07:16.939Z,4.00
2019-03-18T22:09:44.499Z,4.00
2019-03-18T22:12:11.956Z,3.90
2019-03-18T22:14:39.428Z,4.10
2019-03-18T22:17:07.651Z,4.20
2019-03-18T22:19:35.127Z,4.20
2019-03-18T22:22:03.557Z,4.20
2019-03-18T22:24:31.025Z,4.00
2019-03-18T22:26:59.246Z,4.00
2019-03-18T22:29:26.707Z,4.00
2019-03-18T22:31:54.185Z,4.00
2019-03-18T22:34:21.675Z,4.00
2019-03-18T22:36:49.158Z,4.00
2019-03-18T22:39:17.404Z,3.90
2019-03-18T22:41:44.874Z,3.80
2019-03-18T22:44:12.344Z,3.80
2019-03-18T22:46:39.916Z,3.80
2019-03-18T22:49:07.474Z,3.80
2019-03-18T22:51:35.053Z,3.80
2019-03-18T22:54:04.244Z,3.80
2019-03-18T22:56:31.718Z,3.80
2019-03-18T22:59:00.340Z,3.60
2019-03-18T23:01:27.802Z,3.60
2019-03-18T23:03:55.520Z,3.70
2019-03-18T23:06:22.990Z,3.70
2019-03-18T23:08:50.459Z,3.80
2019-03-18T23:11:17.928Z,3.70
2019-03-18T23:13:46.161Z,3.70
2019-03-18T23:16:13.638Z,3.60
2019-03-18T23:18:41.112Z,3.70
2019-03-18T23:21:08.667Z,3.60
2019-03-18T23:23:36.241Z,3.50
2019-03-18T23:26:04.500Z,3.40
2019-03-18T23:28:31.948Z,3.30
2019-03-18T23:30:59.403Z,3.30
2019-03-18T23:33:26.872Z,3.40
2019-03-18T23:35:54.330Z,3.40
2019-03-18T23:38:21.810Z,3.20
2019-03-18T23:40:49.284Z,3.20
2019-03-18T23:43:16.857Z,3.10
2019-03-18T23:45:44.327Z,3.20
2019-03-18T23:48:11.797Z,3.00
2019-03-18T23:50:40.059Z,2.90
2019-03-18T23:53:09.034Z,3.10
2019-03-18T23:55:36.505Z,3.10
2019-03-18T23:58:04.078Z,3.30
